Time;durP1;ratioP1;P1;durP2;ratioP2;P2;SDS_P1;SDS_P2;PMS_P1;PMS_P2;Temp;Humidity;BMP_temperature;BMP_pressure;BME280_temperature;BME280_humidity;BME280_pressure;Samples;Min_cycle;Max_cycle;Signal;HPM_P1;HPM_P2
2023/08/16 00:02:07;;;;;;;1999.90;999.90;;;17.50;88.50;;;;;;5085757;28;20044;-73
2023/08/16 00:04:33;;;;;;;1999.90;999.90;;;17.50;88.30;;;;;;5085533;28;20031;-73
2023/08/16 00:06:59;;;;;;;1999.90;999.90;;;17.50;88.80;;;;;;5089664;28;20040;-73
2023/08/16 00:09:25;;;;;;;1999.90;999.90;;;17.40;89.30;;;;;;5085698;28;20036;-73
2023/08/16 00:11:51;;;;;;;1999.90;999.90;;;17.40;89.30;;;;;;5087875;28;20129;-73
2023/08/16 00:14:18;;;;;;;1999.90;999.90;;;17.50;89.00;;;;;;5080992;28;20107;-74
2023/08/16 00:16:43;;;;;;;1999.90;999.90;;;17.40;89.30;;;;;;5087574;28;20028;-73
2023/08/16 00:19:09;;;;;;;1999.90;999.90;;;17.30;89.40;;;;;;5084330;28;20035;-73
2023/08/16 00:21:35;;;;;;;1999.90;999.90;;;17.10;89.80;;;;;;5083404;28;20036;-73
2023/08/16 00:24:01;;;;;;;1999.90;999.90;;;17.10;90.20;;;;;;5083720;28;20401;-73
2023/08/16 00:26:27;;;;;;;1999.90;999.90;;;17.20;90.20;;;;;;5082157;28;20044;-73
2023/08/16 00:28:53;;;;;;;1999.90;999.90;;;17.20;90.20;;;;;;5088024;28;20036;-73
2023/08/16 00:31:19;;;;;;;1999.90;999.90;;;17.10;90.20;;;;;;5086515;28;20042;-73
2023/08/16 00:33:45;;;;;;;1999.90;999.90;;;17.20;90.40;;;;;;5082066;28;20393;-73
2023/08/16 00:36:11;;;;;;;1999.90;999.90;;;17.20;90.20;;;;;;5087784;28;20032;-73
2023/08/16 00:38:42;;;;;;;1999.90;999.90;;;17.10;90.40;;;;;;5084881;28;20036;-73
2023/08/16 00:41:09;;;;;;;1999.90;999.90;;;17.10;90.20;;;;;;5086928;28;20067;-73
2023/08/16 00:43:35;;;;;;;1999.90;999.90;;;17.10;90.20;;;;;;5085630;28;20024;-73
2023/08/16 00:46:00;;;;;;;1999.90;999.90;;;17.00;90.10;;;;;;5086701;28;20485;-73
2023/08/16 00:48:33;;;;;;;1999.90;999.90;;;17.00;90.60;;;;;;5084616;28;20428;-73
2023/08/16 00:50:59;;;;;;;1999.90;999.90;;;17.00;90.70;;;;;;5084505;28;20527;-73
2023/08/16 00:53:29;;;;;;;1999.90;999.90;;;17.00;90.70;;;;;;5082081;28;20566;-74
2023/08/16 00:55:56;;;;;;;1999.90;999.90;;;16.80;90.80;;;;;;5089376;28;20032;-73
2023/08/16 00:58:22;;;;;;;1999.90;999.90;;;16.70;91.00;;;;;;5089429;28;20036;-73
2023/08/16 01:00:48;;;;;;;1999.90;999.90;;;16.90;91.00;;;;;;5080412;28;20028;-73
2023/08/16 01:03:14;;;;;;;1999.90;999.90;;;16.90;90.90;;;;;;5084639;28;20051;-73
2023/08/16 01:05:40;;;;;;;1999.90;999.90;;;16.90;90.90;;;;;;5084764;28;20048;-73
2023/08/16 01:08:06;;;;;;;1999.90;999.90;;;16.80;91.00;;;;;;5090296;28;20074;-73
2023/08/16 01:10:52;;;;;;;1999.90;999.90;;;16.90;90.80;;;;;;5086690;28;20028;-73
2023/08/16 01:13:27;;;;;;;1999.90;999.90;;;16.90;90.80;;;;;;5068490;28;20478;-73
2023/08/16 01:15:56;;;;;;;1999.90;999.90;;;16.80;90.80;;;;;;5085440;28;20131;-73
2023/08/16 01:18:24;;;;;;;1999.90;999.90;;;16.80;91.40;;;;;;5082410;28;20028;-73
2023/08/16 01:20:52;;;;;;;1999.90;999.90;;;16.80;91.50;;;;;;5083787;28;20490;-73
2023/08/16 01:24:00;;;;;;;1999.90;999.90;;;16.80;91.30;;;;;;5089518;28;20039;-73
2023/08/16 01:26:30;;;;;;;1999.90;999.90;;;16.70;91.20;;;;;;5066905;28;20043;-73
2023/08/16 01:28:57;;;;;;;1999.90;999.90;;;16.60;91.10;;;;;;5085180;28;20036;-73
2023/08/16 01:31:23;;;;;;;1999.90;999.90;;;16.60;91.10;;;;;;5087124;28;20056;-73
2023/08/16 01:33:49;;;;;;;1999.90;999.90;;;16.30;91.00;;;;;;5087096;28;20039;-73
2023/08/16 01:36:14;;;;;;;1999.90;999.90;;;16.40;91.30;;;;;;5082018;28;20040;-73
2023/08/16 01:38:40;;;;;;;1999.90;999.90;;;16.50;91.20;;;;;;5086675;28;20039;-73
2023/08/16 01:41:10;;;;;;;1999.90;999.90;;;16.50;91.00;;;;;;5086077;28;20062;-73
2023/08/16 01:43:36;;;;;;;1999.90;999.90;;;16.60;91.00;;;;;;5084985;28;20101;-73
2023/08/16 01:46:04;;;;;;;1999.90;999.90;;;16.70;91.00;;;;;;5086651;28;20044;-73
2023/08/16 01:48:32;;;;;;;1999.90;999.90;;;16.60;91.10;;;;;;5090272;28;20054;-73
2023/08/16 01:50:58;;;;;;;1999.90;999.90;;;16.50;91.20;;;;;;5087183;28;20476;-73
2023/08/16 01:53:24;;;;;;;1999.90;999.90;;;16.60;91.50;;;;;;5086832;28;20032;-73
2023/08/16 01:55:49;;;;;;;1999.90;999.90;;;16.60;91.40;;;;;;5082655;28;20028;-73
2023/08/16 01:58:16;;;;;;;1999.90;999.90;;;16.60;91.20;;;;;;5087138;28;20036;-73
2023/08/16 02:00:42;;;;;;;1999.90;999.90;;;16.60;91.30;;;;;;5083501;28;20115;-73
2023/08/16 02:03:07;;;;;;;1999.90;999.90;;;16.50;91.20;;;;;;5083931;28;20123;-73
2023/08/16 02:05:33;;;;;;;1999.90;999.90;;;16.50;91.30;;;;;;5084683;28;20032;-73
2023/08/16 02:07:59;;;;;;;1999.90;999.90;;;16.60;91.40;;;;;;5085391;28;20405;-73
2023/08/16 02:10:24;;;;;;;1999.90;999.90;;;16.50;91.40;;;;;;5087176;28;20036;-73
2023/08/16 02:12:50;;;;;;;1999.90;999.90;;;16.50;91.50;;;;;;5087218;28;20032;-73
2023/08/16 02:15:16;;;;;;;1999.90;999.90;;;16.50;91.30;;;;;;5084827;28;20035;-73
2023/08/16 02:17:42;;;;;;;1999.90;999.90;;;16.50;91.30;;;;;;5086966;28;20032;-73
2023/08/16 02:20:09;;;;;;;1999.90;999.90;;;16.50;91.30;;;;;;5082425;28;20157;-73
2023/08/16 02:22:35;;;;;;;1999.90;999.90;;;16.50;91.20;;;;;;5082462;28;20031;-73
2023/08/16 02:25:00;;;;;;;1999.90;999.90;;;16.50;91.10;;;;;;5085523;28;20143;-73
2023/08/16 02:27:26;;;;;;;1999.90;999.90;;;16.60;91.00;;;;;;5088661;28;20043;-73
2023/08/16 02:29:52;;;;;;;1999.90;999.90;;;16.60;91.00;;;;;;5085459;28;20032;-73
2023/08/16 02:32:18;;;;;;;1999.90;999.90;;;16.60;90.80;;;;;;5085084;28;20107;-73
2023/08/16 02:34:44;;;;;;;1999.90;999.90;;;16.50;90.80;;;;;;5081470;28;20055;-73
2023/08/16 02:37:09;;;;;;;1999.90;999.90;;;16.40;91.10;;;;;;5085352;28;20047;-73
2023/08/16 02:39:35;;;;;;;1999.90;999.90;;;16.50;91.30;;;;;;5084062;28;20024;-73
2023/08/16 02:42:01;;;;;;;1999.90;999.90;;;16.40;91.20;;;;;;5084455;28;20656;-73
2023/08/16 02:44:27;;;;;;;1999.90;999.90;;;16.40;91.30;;;;;;5085606;28;20081;-73
2023/08/16 02:46:53;;;;;;;1999.90;999.90;;;16.30;91.40;;;;;;5085005;28;20107;-73
2023/08/16 02:49:18;;;;;;;1999.90;999.90;;;16.30;91.40;;;;;;5085765;28;20039;-73
2023/08/16 02:51:44;;;;;;;1999.90;999.90;;;16.30;91.50;;;;;;5084924;28;20028;-73
2023/08/16 02:54:10;;;;;;;1999.90;999.90;;;16.30;91.60;;;;;;5085045;28;20483;-73
2023/08/16 02:56:35;;;;;;;1999.90;999.90;;;16.30;91.50;;;;;;5085440;28;20591;-73
2023/08/16 02:59:01;;;;;;;1999.90;999.90;;;16.30;91.70;;;;;;5063702;28;20061;-73
2023/08/16 03:01:27;;;;;;;1999.90;999.90;;;16.30;91.60;;;;;;5081379;28;20043;-73
2023/08/16 03:03:52;;;;;;;1999.90;999.90;;;16.20;91.30;;;;;;5075458;28;20059;-73
2023/08/16 03:06:18;;;;;;;1999.90;999.90;;;16.20;91.40;;;;;;5082753;28;20181;-73
2023/08/16 03:08:44;;;;;;;1999.90;999.90;;;16.30;91.20;;;;;;5085734;28;20040;-73
2023/08/16 03:11:11;;;;;;;1999.90;999.90;;;16.20;91.20;;;;;;5084074;28;20031;-73
2023/08/16 03:13:36;;;;;;;1999.90;999.90;;;16.30;91.10;;;;;;5084293;28;20389;-73
2023/08/16 03:16:02;;;;;;;1999.90;999.90;;;16.20;91.00;;;;;;5083414;28;20043;-73
2023/08/16 03:18:28;;;;;;;1999.90;999.90;;;16.20;91.80;;;;;;5083907;28;20025;-73
2023/08/16 03:20:53;;;;;;;1999.90;999.90;;;16.30;92.20;;;;;;5084331;28;20409;-73
2023/08/16 03:23:19;;;;;;;1999.90;999.90;;;16.20;92.00;;;;;;5070446;28;20028;-73
2023/08/16 03:25:45;;;;;;;1999.90;999.90;;;16.20;91.90;;;;;;5083296;28;20064;-73
2023/08/16 03:28:11;;;;;;;1999.90;999.90;;;16.20;91.70;;;;;;5089460;28;20139;-72
2023/08/16 03:30:36;;;;;;;1999.90;999.90;;;16.30;91.70;;;;;;5086020;28;20040;-73
2023/08/16 03:33:02;;;;;;;1999.90;999.90;;;16.30;91.60;;;;;;5086922;28;20036;-73
2023/08/16 03:35:28;;;;;;;1999.90;999.90;;;16.00;91.10;;;;;;5085142;28;20036;-73
2023/08/16 03:37:53;;;;;;;1999.90;999.90;;;16.00;91.70;;;;;;5083606;28;20103;-73
2023/08/16 03:40:19;;;;;;;1999.90;999.90;;;16.00;91.90;;;;;;5085161;28;20485;-73
2023/08/16 03:42:44;;;;;;;1999.90;999.90;;;16.00;91.80;;;;;;5090018;28;20032;-73
2023/08/16 03:45:10;;;;;;;1999.90;999.90;;;16.10;91.90;;;;;;5086078;28;20033;-73
2023/08/16 03:47:36;;;;;;;1999.90;999.90;;;16.10;92.10;;;;;;5089554;28;20059;-73
2023/08/16 03:50:04;;;;;;;1999.90;999.90;;;16.10;92.20;;;;;;5087961;28;20498;-73
2023/08/16 03:52:30;;;;;;;1999.90;999.90;;;16.10;92.20;;;;;;5088075;28;20058;-73
2023/08/16 03:54:56;;;;;;;1999.90;999.90;;;16.00;91.70;;;;;;5084951;28;20028;-73
2023/08/16 03:57:22;;;;;;;1999.90;999.90;;;15.90;91.60;;;;;;5088061;28;20082;-73
2023/08/16 03:59:49;;;;;;;1999.90;999.90;;;15.90;91.30;;;;;;5086343;28;20103;-73
2023/08/16 04:02:15;;;;;;;1999.90;999.90;;;15.80;90.90;;;;;;5086226;28;20062;-73
2023/08/16 04:04:40;;;;;;;1999.90;999.90;;;15.90;91.00;;;;;;5084214;28;20056;-73
2023/08/16 04:07:06;;;;;;;1999.90;999.90;;;15.90;91.30;;;;;;5086649;28;20456;-73
2023/08/16 04:09:32;;;;;;;1999.90;999.90;;;15.90;91.40;;;;;;5088679;28;20040;-73
2023/08/16 04:11:57;;;;;;;1999.90;999.90;;;15.90;91.30;;;;;;5087993;28;20044;-74
2023/08/16 04:14:23;;;;;;;1999.90;999.90;;;15.90;91.40;;;;;;5083989;28;20119;-73
2023/08/16 04:16:48;;;;;;;1999.90;999.90;;;16.10;91.30;;;;;;5089232;28;20115;-73
2023/08/16 04:19:15;;;;;;;1999.90;999.90;;;16.00;91.20;;;;;;5087688;28;20066;-73
2023/08/16 04:21:41;;;;;;;1999.90;999.90;;;16.00;91.50;;;;;;5086304;28;20032;-73
2023/08/16 04:24:07;;;;;;;1999.90;999.90;;;16.00;91.70;;;;;;5085859;28;20035;-73
2023/08/16 04:26:32;;;;;;;1999.90;999.90;;;16.00;91.70;;;;;;5088024;28;20047;-73
2023/08/16 04:28:58;;;;;;;1999.90;999.90;;;16.00;91.70;;;;;;5091495;28;20406;-73
2023/08/16 04:31:23;;;;;;;1999.90;999.90;;;16.10;91.50;;;;;;5088507;28;20040;-73
2023/08/16 04:33:49;;;;;;;1999.90;999.90;;;16.10;92.30;;;;;;5085207;28;20020;-73
2023/08/16 04:36:16;;;;;;;1999.90;999.90;;;16.20;92.20;;;;;;5083008;28;20036;-73
2023/08/16 04:38:41;;;;;;;1999.90;999.90;;;16.20;92.00;;;;;;5084555;28;20043;-73
2023/08/16 04:41:07;;;;;;;1999.90;999.90;;;16.10;91.80;;;;;;5086643;28;20031;-72
2023/08/16 04:43:32;;;;;;;1999.90;999.90;;;16.00;91.70;;;;;;5079749;28;20128;-72
2023/08/16 04:45:58;;;;;;;1999.90;999.90;;;16.00;91.80;;;;;;5084914;28;20127;-72
2023/08/16 04:48:24;;;;;;;1999.90;999.90;;;16.10;91.90;;;;;;5086115;28;20142;-70
2023/08/16 04:50:50;;;;;;;1999.90;999.90;;;16.20;91.80;;;;;;5083659;28;20039;-70
2023/08/16 04:53:16;;;;;;;1999.90;999.90;;;16.30;91.70;;;;;;5085474;28;20505;-70
2023/08/16 04:55:41;;;;;;;1999.90;999.90;;;16.30;91.60;;;;;;5083633;28;20123;-70
2023/08/16 04:58:07;;;;;;;1999.90;999.90;;;16.20;91.90;;;;;;5085834;28;20032;-70
2023/08/16 05:00:33;;;;;;;1999.90;999.90;;;16.40;92.20;;;;;;5085887;28;20062;-70
2023/08/16 05:02:59;;;;;;;1999.90;999.90;;;16.50;92.20;;;;;;5081493;28;20032;-70
2023/08/16 05:05:26;;;;;;;1999.90;999.90;;;16.60;92.00;;;;;;5085157;28;20043;-70
2023/08/16 05:07:51;;;;;;;1999.90;999.90;;;16.60;91.90;;;;;;5085295;28;20040;-70
2023/08/16 05:10:17;;;;;;;1999.90;999.90;;;16.60;92.10;;;;;;5085576;28;20040;-70
2023/08/16 05:12:43;;;;;;;1999.90;999.90;;;16.80;91.90;;;;;;5083648;28;20036;-74
2023/08/16 05:15:09;;;;;;;1999.90;999.90;;;16.90;91.80;;;;;;5081742;28;20024;-76
2023/08/16 05:17:35;;;;;;;1999.90;999.90;;;16.90;91.90;;;;;;5083942;28;20498;-75
2023/08/16 05:20:02;;;;;;;1999.90;999.90;;;17.10;91.90;;;;;;5084139;28;20118;-75
2023/08/16 05:22:27;;;;;;;1999.90;999.90;;;17.10;91.80;;;;;;5084324;28;20494;-75
2023/08/16 05:24:56;;;;;;;1999.90;999.90;;;17.10;91.70;;;;;;5080889;28;20039;-82
2023/08/16 05:27:21;;;;;;;1999.90;999.90;;;17.00;92.10;;;;;;5083944;28;20044;-75
2023/08/16 05:29:47;;;;;;;1999.90;999.90;;;17.10;92.50;;;;;;5083555;28;20070;-75
2023/08/16 05:32:13;;;;;;;1999.90;999.90;;;17.20;92.50;;;;;;5079786;28;20028;-75
2023/08/16 05:34:38;;;;;;;1999.90;999.90;;;17.20;92.30;;;;;;5081306;28;20024;-75
2023/08/16 05:37:06;;;;;;;1999.90;999.90;;;17.20;92.10;;;;;;5085228;28;20024;-74
2023/08/16 05:39:32;;;;;;;1999.90;999.90;;;17.20;92.00;;;;;;5085165;28;20066;-76
2023/08/16 05:41:57;;;;;;;1999.90;999.90;;;17.20;92.10;;;;;;5077929;28;20064;-74
2023/08/16 05:44:23;;;;;;;1999.90;999.90;;;17.30;92.00;;;;;;5080856;28;20440;-74
2023/08/16 05:46:49;;;;;;;1999.90;999.90;;;17.30;91.80;;;;;;5087511;28;20040;-74
2023/08/16 05:49:16;;;;;;;1999.90;999.90;;;17.20;92.00;;;;;;5081181;28;20036;-81
2023/08/16 05:51:41;;;;;;;1999.90;999.90;;;17.30;92.00;;;;;;5079078;28;20036;-76
2023/08/16 05:54:07;;;;;;;1999.90;999.90;;;17.50;91.90;;;;;;5085098;28;20036;-74
2023/08/16 05:56:33;;;;;;;1999.90;999.90;;;17.50;92.20;;;;;;5080908;28;20031;-74
2023/08/16 05:58:58;;;;;;;1999.90;999.90;;;17.40;92.00;;;;;;5080625;28;20028;-74
2023/08/16 06:01:24;;;;;;;1999.90;999.90;;;17.40;92.00;;;;;;5080740;28;20040;-73
2023/08/16 06:03:50;;;;;;;1999.90;999.90;;;17.50;91.80;;;;;;5084447;28;20433;-74
2023/08/16 06:06:15;;;;;;;1999.90;999.90;;;17.50;91.60;;;;;;5084229;28;20382;-74
2023/08/16 06:08:41;;;;;;;1999.90;999.90;;;17.60;91.60;;;;;;5080992;28;20091;-74
2023/08/16 06:11:08;;;;;;;1999.90;999.90;;;17.70;91.40;;;;;;5087468;28;20040;-74
2023/08/16 06:13:34;;;;;;;1999.90;999.90;;;17.80;91.30;;;;;;5082395;28;20039;-74
2023/08/16 06:16:00;;;;;;;1999.90;999.90;;;18.10;90.80;;;;;;5083964;28;20543;-74
2023/08/16 06:18:25;;;;;;;1999.90;999.90;;;18.00;90.90;;;;;;5070393;28;20054;-74
2023/08/16 06:20:51;;;;;;;1999.90;999.90;;;18.10;91.20;;;;;;5086936;28;20044;-74
2023/08/16 06:23:17;;;;;;;1999.90;999.90;;;18.00;91.10;;;;;;5085261;28;20047;-74
2023/08/16 06:25:42;;;;;;;1999.90;999.90;;;18.10;91.30;;;;;;5087411;28;20035;-74
2023/08/16 06:28:08;;;;;;;1999.90;999.90;;;18.20;91.20;;;;;;5082709;28;20567;-74
2023/08/16 06:30:34;;;;;;;1999.90;999.90;;;18.30;90.80;;;;;;5084256;28;20579;-74
2023/08/16 06:32:59;;;;;;;1999.90;999.90;;;18.30;90.80;;;;;;5084892;28;20521;-74
2023/08/16 06:35:25;;;;;;;1999.90;999.90;;;18.30;90.90;;;;;;5081713;28;20020;-74
2023/08/16 06:37:51;;;;;;;1999.90;999.90;;;18.30;90.70;;;;;;5077630;28;20101;-75
2023/08/16 06:40:17;;;;;;;1999.90;999.90;;;18.20;90.70;;;;;;5076791;28;20020;-73
2023/08/16 06:42:42;;;;;;;1999.90;999.90;;;18.30;90.90;;;;;;5068586;28;20483;-73
2023/08/16 06:45:09;;;;;;;1999.90;999.90;;;18.40;90.70;;;;;;5081290;28;20031;-73
2023/08/16 06:47:34;;;;;;;1999.90;999.90;;;18.60;90.50;;;;;;5081652;28;20021;-74
2023/08/16 06:50:01;;;;;;;1999.90;999.90;;;18.70;90.60;;;;;;5073808;28;20024;-74
2023/08/16 06:52:27;;;;;;;1999.90;999.90;;;18.50;90.30;;;;;;5080674;28;20031;-74
2023/08/16 06:54:52;;;;;;;1999.90;999.90;;;18.70;90.50;;;;;;5078598;28;20127;-74
2023/08/16 06:57:18;;;;;;;1999.90;999.90;;;18.70;90.40;;;;;;5079318;28;20035;-74
2023/08/16 06:59:44;;;;;;;1999.90;999.90;;;18.80;90.30;;;;;;5082496;28;20139;-74
2023/08/16 07:02:11;;;;;;;1999.90;999.90;;;18.90;90.40;;;;;;5082834;28;20032;-75
2023/08/16 07:04:38;;;;;;;1999.90;999.90;;;19.00;90.20;;;;;;5084638;28;20028;-74
2023/08/16 07:07:05;;;;;;;1999.90;999.90;;;19.10;89.60;;;;;;5083146;28;20497;-74
2023/08/16 07:09:31;;;;;;;1999.90;999.90;;;19.10;89.60;;;;;;5080232;28;20038;-74
2023/08/16 07:11:56;;;;;;;1999.90;999.90;;;19.20;90.00;;;;;;5084785;28;20115;-74
2023/08/16 07:14:22;;;;;;;1999.90;999.90;;;19.30;88.80;;;;;;5086898;28;20024;-75
2023/08/16 07:16:48;;;;;;;1999.90;999.90;;;19.40;88.70;;;;;;5085101;28;20491;-75
2023/08/16 07:19:13;;;;;;;1999.90;999.90;;;19.60;88.30;;;;;;5083719;28;20024;-74
2023/08/16 07:21:39;;;;;;;1999.90;999.90;;;19.80;87.90;;;;;;5080645;28;20378;-74
2023/08/16 07:24:05;;;;;;;1999.90;999.90;;;20.00;87.00;;;;;;5079254;28;20060;-74
2023/08/16 07:26:31;;;;;;;1999.90;999.90;;;20.10;87.50;;;;;;5083147;28;20089;-72
2023/08/16 07:28:57;;;;;;;1999.90;999.90;;;20.20;86.00;;;;;;5080178;28;20499;-72
2023/08/16 07:31:23;;;;;;;1999.90;999.90;;;20.30;86.70;;;;;;5080964;28;20062;-72
2023/08/16 07:33:49;;;;;;;1999.90;999.90;;;20.30;87.00;;;;;;5079677;28;20479;-72
2023/08/16 07:36:14;;;;;;;1999.90;999.90;;;20.60;87.00;;;;;;5084058;28;20032;-72
2023/08/16 07:38:40;;;;;;;1999.90;999.90;;;20.60;86.30;;;;;;5083819;28;20031;-72
2023/08/16 07:41:07;;;;;;;1999.90;999.90;;;20.90;84.60;;;;;;5086302;28;20043;-72
2023/08/16 07:43:32;;;;;;;1999.90;999.90;;;20.90;84.50;;;;;;5085851;28;20031;-72
2023/08/16 07:45:58;;;;;;;1999.90;999.90;;;20.80;84.30;;;;;;5084348;28;20106;-72
2023/08/16 07:48:24;;;;;;;1999.90;999.90;;;20.90;84.40;;;;;;5083542;28;20414;-72
2023/08/16 07:50:50;;;;;;;1999.90;999.90;;;21.10;84.00;;;;;;5085074;28;20114;-72
2023/08/16 07:53:16;;;;;;;1999.90;999.90;;;21.00;83.80;;;;;;5085434;28;20432;-72
2023/08/16 07:55:41;;;;;;;1999.90;999.90;;;21.10;84.10;;;;;;5085459;28;20028;-72
2023/08/16 07:58:07;;;;;;;1999.90;999.90;;;21.40;83.40;;;;;;5080243;28;20044;-72
2023/08/16 08:00:33;;;;;;;1999.90;999.90;;;21.40;82.90;;;;;;5076421;28;20032;-71
2023/08/16 08:02:59;;;;;;;1999.90;999.90;;;21.50;85.20;;;;;;5082334;28;20066;-72
2023/08/16 08:05:25;;;;;;;1999.90;999.90;;;21.80;83.60;;;;;;5081278;28;20512;-72
2023/08/16 08:07:52;;;;;;;1999.90;999.90;;;22.00;82.20;;;;;;5080419;28;20036;-72
2023/08/16 08:10:18;;;;;;;1999.90;999.90;;;22.20;80.50;;;;;;5080504;28;20095;-72
2023/08/16 08:12:45;;;;;;;1999.90;999.90;;;22.20;80.00;;;;;;5085500;28;20501;-72
2023/08/16 08:15:11;;;;;;;1999.90;999.90;;;22.10;78.60;;;;;;5089730;28;20028;-72
2023/08/16 08:17:37;;;;;;;1999.90;999.90;;;22.30;78.80;;;;;;5090477;28;20141;-72
2023/08/16 08:20:04;;;;;;;1999.90;999.90;;;22.50;78.50;;;;;;5086204;28;20034;-72
2023/08/16 08:22:30;;;;;;;1999.90;999.90;;;22.50;78.00;;;;;;5087617;28;20042;-72
2023/08/16 08:24:55;;;;;;;1999.90;999.90;;;22.80;78.20;;;;;;5088842;28;20036;-73
2023/08/16 08:27:21;;;;;;;1999.90;999.90;;;22.90;77.20;;;;;;5088837;28;20048;-72
2023/08/16 08:29:47;;;;;;;1999.90;999.90;;;23.10;79.30;;;;;;5083856;28;20028;-72
2023/08/16 08:32:12;;;;;;;1999.90;999.90;;;23.40;77.40;;;;;;5087157;28;20036;-74
2023/08/16 08:34:39;;;;;;;1999.90;999.90;;;23.50;77.10;;;;;;5087666;28;20032;-75
2023/08/16 08:37:05;;;;;;;1999.90;999.90;;;23.80;74.90;;;;;;5083210;28;20035;-73
2023/08/16 08:39:33;;;;;;;1999.90;999.90;;;23.70;72.40;;;;;;5081687;28;20016;-73
2023/08/16 08:41:59;;;;;;;1999.90;999.90;;;23.90;72.20;;;;;;5087642;28;20536;-72
2023/08/16 08:44:25;;;;;;;1999.90;999.90;;;24.10;72.30;;;;;;5065414;28;20044;-72
2023/08/16 08:46:52;;;;;;;1999.90;999.90;;;24.10;70.50;;;;;;5081799;28;20148;-72
2023/08/16 08:49:19;;;;;;;1999.90;999.90;;;24.20;68.80;;;;;;5078932;28;20029;-72
2023/08/16 08:51:47;;;;;;;1999.90;999.90;;;24.10;69.00;;;;;;5082025;28;20032;-72
2023/08/16 08:54:12;;;;;;;1999.90;999.90;;;24.30;69.90;;;;;;5082681;28;20100;-72
2023/08/16 08:56:40;;;;;;;1999.90;999.90;;;24.70;68.30;;;;;;5080879;28;20479;-73
2023/08/16 08:59:07;;;;;;;1999.90;999.90;;;24.90;68.60;;;;;;5083235;28;20032;-75
2023/08/16 09:01:37;;;;;;;1999.90;999.90;;;24.90;67.70;;;;;;5083075;28;20698;-75
2023/08/16 09:04:04;;;;;;;1999.90;999.90;;;25.30;65.40;;;;;;5087551;28;20481;-75
2023/08/16 09:06:30;;;;;;;1999.90;999.90;;;25.60;65.90;;;;;;5087269;28;20040;-75
2023/08/16 09:08:56;;;;;;;1999.90;999.90;;;25.60;63.30;;;;;;5087833;28;20039;-75
2023/08/16 09:11:24;;;;;;;1999.90;999.90;;;25.80;64.60;;;;;;5085013;28;20120;-75
2023/08/16 09:13:51;;;;;;;1999.90;999.90;;;25.70;63.00;;;;;;5086666;28;20034;-75
2023/08/16 09:16:17;;;;;;;1999.90;999.90;;;25.70;63.40;;;;;;5085367;28;20585;-75
2023/08/16 09:18:47;;;;;;;1999.90;999.90;;;25.70;64.80;;;;;;5082783;28;20024;-75
2023/08/16 09:21:18;;;;;;;1999.90;999.90;;;25.90;64.40;;;;;;5079922;28;20493;-75
2023/08/16 09:23:45;;;;;;;1999.90;999.90;;;26.00;61.30;;;;;;5087269;28;20058;-75
2023/08/16 09:26:18;;;;;;;1999.90;999.90;;;26.10;61.90;;;;;;5081109;28;20090;-75
2023/08/16 09:28:44;;;;;;;1999.90;999.90;;;26.40;61.00;;;;;;5084540;28;20024;-74
2023/08/16 09:31:10;;;;;;;1999.90;999.90;;;26.40;58.80;;;;;;5082736;28;20155;-75
2023/08/16 09:33:38;;;;;;;1999.90;999.90;;;26.80;60.10;;;;;;5083650;28;20103;-75
2023/08/16 09:36:04;;;;;;;1999.90;999.90;;;26.80;55.50;;;;;;5080362;28;20024;-75
2023/08/16 09:38:32;;;;;;;1999.90;999.90;;;26.90;57.90;;;;;;5080292;28;20028;-76
2023/08/16 09:40:58;;;;;;;1999.90;999.90;;;27.20;60.00;;;;;;5080764;28;20024;-75
2023/08/16 09:43:24;;;;;;;1999.90;999.90;;;27.40;56.50;;;;;;5084132;28;20034;-75
2023/08/16 09:45:53;;;;;;;1999.90;999.90;;;27.40;58.30;;;;;;5085024;28;20036;-75
2023/08/16 09:48:20;;;;;;;1999.90;999.90;;;27.40;57.20;;;;;;5084655;28;20015;-75
2023/08/16 09:50:46;;;;;;;1999.90;999.90;;;27.30;51.10;;;;;;5085077;28;20039;-75
2023/08/16 09:53:15;;;;;;;1999.90;999.90;;;27.50;54.30;;;;;;5081660;28;20028;-75
2023/08/16 09:55:45;;;;;;;1999.90;999.90;;;27.40;52.50;;;;;;5084478;28;20020;-75
2023/08/16 09:58:12;;;;;;;1999.90;999.90;;;27.30;55.00;;;;;;5080756;28;20028;-75
2023/08/16 10:00:40;;;;;;;1999.90;999.90;;;27.40;54.90;;;;;;5078727;28;20037;-74
2023/08/16 10:03:08;;;;;;;1999.90;999.90;;;27.30;52.10;;;;;;5078419;28;20024;-75
2023/08/16 10:05:34;;;;;;;1999.90;999.90;;;27.30;57.80;;;;;;5085938;28;20028;-74
2023/08/16 10:08:04;;;;;;;1999.90;999.90;;;27.70;56.20;;;;;;5079917;28;20028;-75
2023/08/16 10:10:34;;;;;;;1999.90;999.90;;;28.20;53.90;;;;;;5080345;28;20028;-75
2023/08/16 10:13:03;;;;;;;1999.90;999.90;;;28.20;54.20;;;;;;5081389;28;20425;-75
2023/08/16 10:15:33;;;;;;;1999.90;999.90;;;28.20;53.10;;;;;;5087257;28;20028;-75
2023/08/16 10:18:06;;;;;;;1999.90;999.90;;;27.80;56.30;;;;;;5081380;28;20258;-75
2023/08/16 10:20:36;;;;;;;1999.90;999.90;;;28.10;53.50;;;;;;5067280;28;20041;-75
2023/08/16 10:23:04;;;;;;;1999.90;999.90;;;28.20;52.50;;;;;;5084190;28;20036;-76
2023/08/16 10:25:44;;;;;;;1999.90;999.90;;;28.40;55.20;;;;;;5083028;28;20059;-76
2023/08/16 10:28:10;;;;;;;1999.90;999.90;;;28.90;51.00;;;;;;5082214;28;20036;-75
2023/08/16 10:30:39;;;;;;;1999.90;999.90;;;29.00;53.10;;;;;;5082574;28;20047;-75
2023/08/16 10:33:23;;;;;;;1999.90;999.90;;;29.00;53.90;;;;;;5083121;28;20028;-75
2023/08/16 10:35:50;;;;;;;1999.90;999.90;;;28.90;53.40;;;;;;5081646;28;20494;-75
2023/08/16 10:38:18;;;;;;;1999.90;999.90;;;29.20;52.10;;;;;;5085805;28;20068;-75
2023/08/16 10:40:58;;;;;;;1999.90;999.90;;;29.70;51.80;;;;;;5084362;28;20105;-75
2023/08/16 10:43:31;;;;;;;1999.90;999.90;;;29.70;51.20;;;;;;5081944;28;20050;-75
2023/08/16 10:45:57;;;;;;;1999.90;999.90;;;29.50;50.70;;;;;;5080478;28;20060;-76
2023/08/16 10:48:23;;;;;;;1999.90;999.90;;;29.60;52.30;;;;;;5084142;28;20093;-75
2023/08/16 10:50:56;;;;;;;1999.90;999.90;;;29.70;52.90;;;;;;5085175;28;20036;-75
2023/08/16 10:53:25;;;;;;;1999.90;999.90;;;30.00;52.50;;;;;;5083929;28;20077;-75
2023/08/16 10:55:55;;;;;;;1999.90;999.90;;;30.00;52.60;;;;;;5083520;28;20054;-75
2023/08/16 10:58:28;;;;;;;1999.90;999.90;;;30.20;50.00;;;;;;5086830;28;20035;-75
2023/08/16 11:00:58;;;;;;;1999.90;999.90;;;30.30;48.80;;;;;;5086262;28;20044;-75
2023/08/16 11:03:34;;;;;;;1999.90;999.90;;;30.40;47.10;;;;;;5083433;28;20169;-75
2023/08/16 11:06:06;;;;;;;1999.90;999.90;;;30.10;51.40;;;;;;5083243;28;20043;-75
2023/08/16 11:08:32;;;;;;;1999.90;999.90;;;31.00;44.20;;;;;;5083657;28;20184;-75
2023/08/16 11:11:01;;;;;;;1999.90;999.90;;;31.40;46.20;;;;;;5083503;28;20217;-75
2023/08/16 11:13:28;;;;;;;1999.90;999.90;;;31.60;43.70;;;;;;5083959;28;20051;-75
2023/08/16 11:15:54;;;;;;;1999.90;999.90;;;31.50;41.70;;;;;;5082867;28;20032;-75
2023/08/16 11:18:30;;;;;;;1999.90;999.90;;;32.10;40.00;;;;;;5080486;28;20054;-75
2023/08/16 11:21:00;;;;;;;1999.90;999.90;;;32.40;38.60;;;;;;5087279;28;20040;-76
2023/08/16 11:23:37;;;;;;;1999.90;999.90;;;32.40;39.80;;;;;;5082087;28;20450;-75
2023/08/16 11:26:03;;;;;;;1999.90;999.90;;;32.60;40.20;;;;;;5084227;28;20055;-75
2023/08/16 11:28:31;;;;;;;1999.90;999.90;;;32.60;39.20;;;;;;5082171;28;20032;-75
2023/08/16 11:31:01;;;;;;;1999.90;999.90;;;32.80;37.50;;;;;;5084657;28;20109;-75
2023/08/16 11:33:34;;;;;;;1999.90;999.90;;;32.80;39.50;;;;;;5086150;28;20028;-75
2023/08/16 11:36:05;;;;;;;1999.90;999.90;;;33.30;35.50;;;;;;5082515;28;20479;-75
2023/08/16 11:38:31;;;;;;;1999.90;999.90;;;32.90;37.20;;;;;;5083158;28;20397;-75
2023/08/16 11:40:57;;;;;;;1999.90;999.90;;;33.80;38.10;;;;;;5083966;28;20028;-75
2023/08/16 11:43:33;;;;;;;1999.90;999.90;;;33.60;35.00;;;;;;5081162;28;20048;-75
2023/08/16 11:46:01;;;;;;;1999.90;999.90;;;32.80;37.20;;;;;;5084261;28;20358;-76
2023/08/16 11:48:29;;;;;;;1999.90;999.90;;;32.80;37.40;;;;;;5086852;28;20636;-75
2023/08/16 11:50:56;;;;;;;1999.90;999.90;;;33.40;36.00;;;;;;5088632;28;20036;-76
2023/08/16 11:53:29;;;;;;;1999.90;999.90;;;33.80;35.20;;;;;;5087301;28;20063;-76
2023/08/16 11:56:01;;;;;;;1999.90;999.90;;;33.80;36.20;;;;;;5086299;28;20077;-75
2023/08/16 11:58:27;;;;;;;1999.90;999.90;;;34.20;34.20;;;;;;5083392;28;20020;-75